Time;durP1;ratioP1;P1;durP2;ratioP2;P2;SDS_P1;SDS_P2;PMS_P1;PMS_P2;Temp;Humidity;BMP_temperature;BMP_pressure;BME280_temperature;BME280_humidity;BME280_pressure;Samples;Min_cycle;Max_cycle;Signal;HPM_P1;HPM_P2
2021/11/25 00:01:36;;;;;;;38.25;21.30;;;;;;;0.15;69.21;102010.25;1849586;76;21003;-78
2021/11/25 00:04:03;;;;;;;33.53;19.50;;;;;;;0.12;69.42;102015.40;1849798;77;21093;-77
2021/11/25 00:06:30;;;;;;;30.50;19.70;;;;;;;0.11;69.39;102014.95;1849639;77;20861;-77
2021/11/25 00:08:57;;;;;;;33.78;20.05;;;;;;;0.09;69.49;102016.25;1849327;77;21556;-77
2021/11/25 00:11:25;;;;;;;33.23;20.97;;;;;;;0.12;69.61;102012.39;1849692;77;20991;-76
2021/11/25 00:13:52;;;;;;;38.25;21.57;;;;;;;0.15;69.70;102009.81;1840499;75;20863;-75
2021/11/25 00:16:20;;;;;;;34.83;22.40;;;;;;;0.19;69.67;102005.55;1835607;77;21353;-74
2021/11/25 00:18:47;;;;;;;35.83;21.33;;;;;;;0.21;69.67;102003.84;1835505;76;20922;-78
2021/11/25 00:21:15;;;;;;;32.10;19.73;;;;;;;0.26;69.69;102001.28;1834840;77;20860;-76
2021/11/25 00:23:41;;;;;;;32.00;20.12;;;;;;;0.29;69.62;101987.98;1835338;76;20958;-78
2021/11/25 00:26:09;;;;;;;28.40;18.73;;;;;;;0.30;69.51;101983.23;1835041;76;20867;-77
2021/11/25 00:28:36;;;;;;;29.72;20.80;;;;;;;0.31;69.50;101987.56;1806964;78;21256;-77
2021/11/25 00:31:04;;;;;;;30.92;19.48;;;;;;;0.34;69.50;101991.87;1834879;77;21563;-76
2021/11/25 00:33:31;;;;;;;32.98;18.73;;;;;;;0.33;69.50;101988.83;1834800;78;20879;-76
2021/11/25 00:35:59;;;;;;;33.25;19.32;;;;;;;0.32;69.48;101981.53;1834751;77;20875;-77
2021/11/25 00:38:26;;;;;;;29.15;19.42;;;;;;;0.30;69.53;101975.50;1834932;77;20867;-77
2021/11/25 00:40:53;;;;;;;33.28;19.32;;;;;;;0.29;69.54;101978.95;1834928;77;21559;-77
2021/11/25 00:43:21;;;;;;;32.78;19.40;;;;;;;0.29;69.48;101974.19;1835152;77;20859;-76
2021/11/25 00:45:49;;;;;;;33.13;20.15;;;;;;;0.24;69.51;101981.91;1834894;77;20891;-77
2021/11/25 00:48:16;;;;;;;33.83;21.40;;;;;;;0.21;69.61;101979.33;1835204;77;21384;-78
2021/11/25 00:50:43;;;;;;;31.80;19.48;;;;;;;0.18;69.69;101974.17;1834900;77;20859;-77
2021/11/25 00:53:10;;;;;;;30.30;19.48;;;;;;;0.16;69.67;101974.16;1835262;76;21106;-77
2021/11/25 00:55:39;;;;;;;32.28;20.35;;;;;;;0.12;69.75;101968.97;1834901;78;20915;-76
2021/11/25 00:58:06;;;;;;;34.03;21.62;;;;;;;0.07;69.92;101970.64;1835064;77;20863;-76
2021/11/25 01:00:34;;;;;;;34.60;20.08;;;;;;;0.04;70.00;101971.93;1834914;77;20942;-78
2021/11/25 01:03:01;;;;;;;31.00;18.67;;;;;;;-0.03;70.21;101963.30;1835139;77;20894;-77
2021/11/25 01:05:28;;;;;;;29.85;19.45;;;;;;;-0.05;70.30;101974.03;1834833;77;21965;-76
2021/11/25 01:07:55;;;;;;;32.17;19.42;;;;;;;-0.08;70.38;101974.88;1835657;77;20863;-76
2021/11/25 01:10:23;;;;;;;30.77;18.75;;;;;;;-0.11;70.44;101968.42;1835620;76;20875;-77
2021/11/25 01:12:52;;;;;;;30.00;19.23;;;;;;;-0.14;70.52;101972.25;1836601;77;21099;-77
2021/11/25 01:15:19;;;;;;;30.70;20.82;;;;;;;-0.15;70.60;101967.97;1849883;76;20889;-77
2021/11/25 01:17:46;;;;;;;30.02;18.37;;;;;;;-0.18;70.71;101967.93;1849827;77;21101;-77
2021/11/25 01:20:16;;;;;;;31.27;19.75;;;;;;;-0.18;70.78;101973.52;1849335;76;20873;-77
2021/11/25 01:22:43;;;;;;;28.65;19.15;;;;;;;-0.20;70.86;101972.24;1849369;77;20908;-77
2021/11/25 01:25:10;;;;;;;31.48;20.68;;;;;;;-0.21;70.90;101971.35;1849437;77;20909;-78
2021/11/25 01:27:37;;;;;;;29.27;18.73;;;;;;;-0.19;70.80;101963.64;1849375;77;20917;-78
2021/11/25 01:30:07;;;;;;;29.02;19.20;;;;;;;-0.22;70.88;101970.08;1849465;77;21776;-77
2021/11/25 01:32:34;;;;;;;26.55;18.02;;;;;;;-0.20;71.01;101969.66;1849538;77;21433;-77
2021/11/25 01:35:00;;;;;;;29.12;18.40;;;;;;;-0.17;71.05;101972.25;1849224;77;20830;-78
2021/11/25 01:37:28;;;;;;;28.85;18.35;;;;;;;-0.14;70.97;101973.55;1849531;77;20928;-76
2021/11/25 01:39:56;;;;;;;29.27;19.37;;;;;;;-0.11;71.00;101977.85;1849679;77;20972;-78
2021/11/25 01:42:23;;;;;;;33.80;19.12;;;;;;;-0.08;70.86;101975.31;1849388;77;22023;-77
2021/11/25 01:44:50;;;;;;;28.73;19.17;;;;;;;-0.09;70.85;101971.88;1849543;77;20866;-77
2021/11/25 01:47:17;;;;;;;33.45;18.40;;;;;;;-0.10;70.73;101984.31;1849446;77;21422;-79
2021/11/25 01:49:44;;;;;;;34.48;20.30;;;;;;;-0.09;70.90;101987.75;1849189;76;21435;-78
2021/11/25 01:52:11;;;;;;;30.12;19.35;;;;;;;-0.07;70.85;101980.89;1849719;77;20921;-78
2021/11/25 01:54:38;;;;;;;30.88;20.05;;;;;;;-0.07;70.79;101983.06;1849371;77;21181;-78
2021/11/25 01:57:06;;;;;;;36.25;21.10;;;;;;;-0.06;70.86;101978.33;1849377;77;20929;-78
2021/11/25 01:59:36;;;;;;;39.75;23.02;;;;;;;-0.04;70.89;101985.65;1849508;77;20936;-78
2021/11/25 02:02:05;;;;;;;34.80;22.00;;;;;;;-0.02;70.88;101985.23;1850298;77;20939;-76
2021/11/25 02:04:32;;;;;;;32.95;20.20;;;;;;;-0.06;70.82;101971.89;1851431;77;20957;-77
2021/11/25 02:06:59;;;;;;;36.13;20.10;;;;;;;-0.06;70.86;101980.05;1849516;77;21093;-78
2021/11/25 02:09:26;;;;;;;37.17;20.72;;;;;;;-0.08;70.93;101983.05;1849861;77;20948;-78
2021/11/25 02:11:53;;;;;;;31.10;19.62;;;;;;;-0.10;70.93;101984.31;1849228;77;21004;-78
2021/11/25 02:14:20;;;;;;;30.82;19.30;;;;;;;-0.11;71.00;101981.72;1849296;77;21478;-78
2021/11/25 02:16:50;;;;;;;35.55;22.60;;;;;;;-0.07;71.07;101986.05;1849426;77;20823;-76
2021/11/25 02:19:17;;;;;;;32.93;20.12;;;;;;;-0.07;71.03;101987.33;1849309;77;21074;-77
2021/11/25 02:21:46;;;;;;;29.70;18.25;;;;;;;-0.07;70.83;101978.31;1849167;77;21128;-77
2021/11/25 02:24:14;;;;;;;31.97;21.10;;;;;;;-0.12;71.00;101978.28;1849242;77;21497;-78
2021/11/25 02:26:41;;;;;;;38.28;19.23;;;;;;;-0.13;71.06;101985.60;1849362;77;20862;-77
2021/11/25 02:29:08;;;;;;;29.77;19.27;;;;;;;-0.17;71.06;101985.14;1849381;77;20873;-76
2021/11/25 02:31:35;;;;;;;29.02;18.40;;;;;;;-0.16;71.02;101988.57;1849423;77;21123;-77
2021/11/25 02:34:02;;;;;;;33.00;20.35;;;;;;;-0.18;71.08;101983.39;1849254;77;20905;-78
2021/11/25 02:36:28;;;;;;;32.95;20.88;;;;;;;-0.17;71.07;101981.27;1849155;77;20968;-79
2021/11/25 02:38:55;;;;;;;34.03;20.45;;;;;;;-0.15;71.10;101986.45;1849473;76;21402;-78
2021/11/25 02:41:22;;;;;;;34.88;21.30;;;;;;;-0.16;71.11;101986.00;1849325;76;20834;-77
2021/11/25 02:43:53;;;;;;;29.57;19.27;;;;;;;-0.16;71.05;101975.25;1849802;77;21128;-77
2021/11/25 02:46:18;;;;;;;32.73;21.37;;;;;;;-0.18;71.10;101974.81;1849217;77;20933;-77
2021/11/25 02:48:51;;;;;;;33.67;20.43;;;;;;;-0.20;71.05;101976.11;1849626;76;20920;-77
2021/11/25 02:51:24;;;;;;;30.08;19.55;;;;;;;-0.25;71.10;101972.61;1849200;77;21026;-77
2021/11/25 02:53:52;;;;;;;29.35;19.37;;;;;;;-0.28;71.10;101972.61;1849274;77;20885;-77
2021/11/25 02:56:21;;;;;;;29.57;18.27;;;;;;;-0.36;71.22;101966.53;1849569;77;21084;-77
2021/11/25 02:58:49;;;;;;;25.55;16.60;;;;;;;-0.45;71.18;101966.03;1850653;77;20944;-76
2021/11/25 03:01:28;;;;;;;29.00;18.05;;;;;;;-0.57;71.38;101968.54;1850001;77;20995;-76
2021/11/25 03:03:56;;;;;;;28.40;16.45;;;;;;;-0.66;71.50;101965.45;1849697;77;20926;-75
2021/11/25 03:06:23;;;;;;;28.52;18.10;;;;;;;-0.73;71.72;101959.83;1849762;76;20866;-77
2021/11/25 03:08:50;;;;;;;26.57;17.42;;;;;;;-0.80;71.89;101965.75;1849269;77;21128;-77
2021/11/25 03:11:20;;;;;;;29.00;17.42;;;;;;;-0.87;72.09;101963.15;1849283;77;20902;-77
2021/11/25 03:13:52;;;;;;;27.77;17.25;;;;;;;-0.94;72.29;101961.34;1845395;77;20914;-77
2021/11/25 03:16:20;;;;;;;31.05;18.62;;;;;;;-0.98;72.39;101959.58;1834967;77;20922;-76
2021/11/25 03:18:49;;;;;;;29.52;18.90;;;;;;;-1.04;72.57;101962.13;1835043;77;20958;-76
2021/11/25 03:21:17;;;;;;;29.10;18.15;;;;;;;-1.05;72.67;101968.95;1833937;77;21163;-77
2021/11/25 03:23:47;;;;;;;28.35;18.37;;;;;;;-1.08;72.90;101968.09;1834708;76;20867;-77
2021/11/25 03:26:17;;;;;;;26.27;17.55;;;;;;;-1.11;73.04;101964.17;1834750;77;21005;-76
2021/11/25 03:28:44;;;;;;;30.12;16.70;;;;;;;-1.11;73.15;101959.02;1835188;77;20981;-76
2021/11/25 03:31:24;;;;;;;29.50;17.77;;;;;;;-1.13;73.27;101962.04;1834845;76;20831;-77
2021/11/25 03:33:56;;;;;;;26.27;18.02;;;;;;;-1.11;73.30;101962.89;1835281;78;21081;-78
2021/11/25 03:36:23;;;;;;;30.25;18.30;;;;;;;-1.10;73.39;101963.34;1835062;77;20852;-77
2021/11/25 03:38:50;;;;;;;27.85;17.62;;;;;;;-1.10;73.45;101956.91;1835339;77;20887;-78
2021/11/25 03:41:17;;;;;;;25.62;16.90;;;;;;;-1.10;73.43;101959.48;1835036;76;21384;-76
2021/11/25 03:43:44;;;;;;;27.95;17.67;;;;;;;-1.10;73.46;101964.63;1835406;77;20992;-75
2021/11/25 03:46:11;;;;;;;26.45;16.62;;;;;;;-1.09;73.44;101956.05;1835025;76;21073;-77
2021/11/25 03:48:39;;;;;;;25.30;17.02;;;;;;;-1.11;73.40;101963.77;1835237;77;20867;-75
2021/11/25 03:51:08;;;;;;;24.32;16.30;;;;;;;-1.15;73.31;101959.88;1834925;77;21459;-76
2021/11/25 03:53:37;;;;;;;30.65;18.70;;;;;;;-1.19;73.38;101961.54;1835604;77;21502;-76
2021/11/25 03:56:05;;;;;;;30.40;18.05;;;;;;;-1.20;73.39;101954.68;1835044;77;21388;-76
2021/11/25 03:58:32;;;;;;;21.75;15.13;;;;;;;-1.20;73.37;101953.80;1834915;77;21138;-75
2021/11/25 04:00:59;;;;;;;25.32;16.80;;;;;;;-1.23;73.40;101964.92;1835207;76;20886;-76
2021/11/25 04:03:27;;;;;;;26.70;16.75;;;;;;;-1.25;73.36;101958.89;1835006;77;20875;-76
2021/11/25 04:05:54;;;;;;;29.55;16.35;;;;;;;-1.30;73.35;101960.56;1835279;78;20843;-74
2021/11/25 04:08:21;;;;;;;31.33;17.80;;;;;;;-1.32;73.38;101965.69;1835027;77;21330;-76
2021/11/25 04:10:47;;;;;;;30.40;18.52;;;;;;;-1.36;73.41;101961.78;1835213;76;21094;-76
2021/11/25 04:13:15;;;;;;;34.50;18.80;;;;;;;-1.38;73.38;101961.78;1834911;77;20946;-76
2021/11/25 04:15:42;;;;;;;24.90;16.65;;;;;;;-1.41;73.48;101960.88;1848565;77;20893;-76
2021/11/25 04:18:09;;;;;;;29.67;17.17;;;;;;;-1.43;73.54;101960.84;1849599;77;20944;-77
2021/11/25 04:20:37;;;;;;;28.98;16.25;;;;;;;-1.45;73.67;101952.25;1849723;77;20971;-80
2021/11/25 04:23:04;;;;;;;31.20;18.37;;;;;;;-1.46;73.75;101954.39;1849329;77;21114;-78
2021/11/25 04:25:34;;;;;;;26.25;16.30;;;;;;;-1.47;73.81;101951.36;1849299;77;20920;-79
2021/11/25 04:28:02;;;;;;;28.35;17.05;;;;;;;-1.47;73.89;101961.26;1849426;77;21316;-79
2021/11/25 04:30:50;;;;;;;29.55;18.55;;;;;;;-1.45;73.92;101959.97;1849331;77;20901;-78
2021/11/25 04:35:44;;;;;;;26.45;16.85;;;;;;;-1.40;74.05;101962.59;1849579;77;21152;-80
2021/11/25 04:38:13;;;;;;;24.77;16.50;;;;;;;-1.38;74.08;101959.61;1849263;77;21362;-78
2021/11/25 04:40:46;;;;;;;26.33;16.12;;;;;;;-1.36;74.03;101965.20;1849540;76;21281;-83
2021/11/25 04:43:14;;;;;;;24.67;15.58;;;;;;;-1.35;73.99;101967.38;1849677;77;20953;-79
2021/11/25 04:45:42;;;;;;;28.47;16.70;;;;;;;-1.38;73.94;101969.91;1849540;77;20917;-76
2021/11/25 04:48:09;;;;;;;31.37;18.40;;;;;;;-1.40;73.90;101971.20;1850219;76;21112;-78
2021/11/25 04:50:37;;;;;;;25.15;16.12;;;;;;;-1.43;73.89;101975.00;1850384;77;20909;-77
2021/11/25 04:53:05;;;;;;;30.48;16.20;;;;;;;-1.47;73.90;101975.80;1849263;77;20944;-80
2021/11/25 04:55:33;;;;;;;23.47;15.08;;;;;;;-1.51;73.97;101976.21;1849239;77;20893;-78
2021/11/25 04:57:59;;;;;;;28.73;16.77;;;;;;;-1.54;74.00;101977.44;1849872;76;20920;-79
2021/11/25 05:00:26;;;;;;;23.12;15.78;;;;;;;-1.59;74.09;101982.11;1849370;77;21159;-79
2021/11/25 05:02:53;;;;;;;27.30;16.25;;;;;;;-1.61;74.14;101979.94;1849536;76;20870;-79
2021/11/25 05:05:20;;;;;;;28.25;17.55;;;;;;;-1.64;74.14;101979.91;1849397;77;20874;-80
2021/11/25 05:07:49;;;;;;;24.12;16.70;;;;;;;-1.68;74.20;101977.28;1849309;77;21415;-78
2021/11/25 05:10:16;;;;;;;25.80;15.75;;;;;;;-1.69;74.18;101987.14;1849314;77;20882;-78
2021/11/25 05:12:43;;;;;;;27.27;16.27;;;;;;;-1.73;74.27;101991.80;1849739;77;21087;-78
2021/11/25 05:15:12;;;;;;;27.32;16.12;;;;;;;-1.72;74.29;101992.23;1840300;76;20852;-78
2021/11/25 05:17:40;;;;;;;25.52;16.62;;;;;;;-1.73;74.34;101987.09;1835145;76;20824;-77
2021/11/25 05:20:11;;;;;;;26.48;16.15;;;;;;;-1.73;74.38;101993.09;1835087;76;20860;-78
2021/11/25 05:22:38;;;;;;;29.45;16.95;;;;;;;-1.72;74.43;101994.80;1835362;77;20954;-76
2021/11/25 05:25:06;;;;;;;28.23;18.07;;;;;;;-1.71;74.50;101991.83;1834871;76;21964;-78
2021/11/25 05:27:34;;;;;;;26.37;15.93;;;;;;;-1.68;74.57;101995.28;1834797;77;20958;-79
2021/11/25 05:30:03;;;;;;;25.80;16.90;;;;;;;-1.68;74.63;101996.57;1834852;76;20910;-79
2021/11/25 05:32:30;;;;;;;28.20;16.93;;;;;;;-1.66;74.66;101997.88;1807263;78;20848;-78
2021/11/25 05:34:57;;;;;;;32.17;18.80;;;;;;;-1.62;74.70;102000.94;1835241;77;20965;-77
2021/11/25 05:37:24;;;;;;;28.07;17.57;;;;;;;-1.61;74.77;101998.80;1834957;77;21109;-77
2021/11/25 05:39:51;;;;;;;29.70;15.85;;;;;;;-1.59;74.75;102006.54;1834821;77;20890;-79
2021/11/25 05:42:19;;;;;;;27.02;17.67;;;;;;;-1.58;74.77;102006.57;1835221;77;20875;-76
2021/11/25 05:44:46;;;;;;;28.05;17.00;;;;;;;-1.54;74.76;102003.59;1836032;77;20966;-77
2021/11/25 05:47:13;;;;;;;29.02;17.27;;;;;;;-1.51;74.79;102003.22;1834915;77;21321;-77
2021/11/25 05:49:40;;;;;;;27.98;17.62;;;;;;;-1.47;74.83;102006.28;1834884;76;21159;-76
2021/11/25 05:52:09;;;;;;;25.12;18.17;;;;;;;-1.40;74.80;102008.90;1834829;77;20966;-80
2021/11/25 05:54:35;;;;;;;26.50;16.67;;;;;;;-1.34;74.69;102007.69;1834802;76;21347;-78
2021/11/25 05:57:03;;;;;;;23.20;16.27;;;;;;;-1.31;74.58;102004.74;1835153;77;20918;-79
2021/11/25 05:59:30;;;;;;;31.20;17.12;;;;;;;-1.23;74.44;102012.53;1834885;78;20851;-80
2021/11/25 06:01:57;;;;;;;30.45;18.07;;;;;;;-1.20;74.34;102019.42;1834870;76;21122;-79
2021/11/25 06:04:24;;;;;;;25.57;16.35;;;;;;;-1.15;74.23;102017.35;1835055;77;20914;-76
2021/11/25 06:06:50;;;;;;;29.23;17.77;;;;;;;-1.11;74.15;102020.41;1835056;77;21313;-79
2021/11/25 06:09:17;;;;;;;30.30;18.07;;;;;;;-1.06;74.04;102023.88;1834814;77;20871;-75
2021/11/25 06:11:47;;;;;;;32.30;18.05;;;;;;;-1.00;73.98;102028.64;1834844;77;21079;-77
2021/11/25 06:14:13;;;;;;;30.85;19.07;;;;;;;-0.93;73.90;102030.03;1837975;75;21135;-85
2021/11/25 06:16:40;;;;;;;34.75;19.92;;;;;;;-0.84;73.78;102032.69;1860260;77;20852;-77
2021/11/25 06:19:07;;;;;;;36.15;20.55;;;;;;;-0.76;73.69;102030.61;1860540;77;20934;-79
2021/11/25 06:21:34;;;;;;;39.00;22.27;;;;;;;-0.66;73.67;102024.70;1860890;77;20882;-79
2021/11/25 06:24:01;;;;;;;44.20;24.27;;;;;;;-0.57;73.50;102027.36;1860500;76;21263;-78
2021/11/25 06:26:28;;;;;;;34.60;19.67;;;;;;;-0.47;73.26;102027.00;1860591;77;21224;-77
2021/11/25 06:28:55;;;;;;;29.77;17.85;;;;;;;-0.40;73.16;102033.95;1860607;77;20962;-79
2021/11/25 06:31:22;;;;;;;29.05;16.87;;;;;;;-0.30;72.98;102037.03;1860373;77;21382;-78
2021/11/25 06:33:51;;;;;;;29.23;16.73;;;;;;;-0.23;72.80;102032.78;1860250;77;21306;-78
2021/11/25 06:36:17;;;;;;;29.15;16.93;;;;;;;-0.15;72.63;102032.42;1860643;76;20923;-77
2021/11/25 06:38:44;;;;;;;25.60;18.12;;;;;;;-0.10;72.56;102019.56;1860482;76;21408;-78
2021/11/25 06:41:11;;;;;;;24.65;16.35;;;;;;;0.01;72.45;102019.63;1860320;77;20902;-78
2021/11/25 06:43:38;;;;;;;28.62;17.92;;;;;;;0.09;72.32;102022.70;1860653;77;21345;-78
2021/11/25 06:46:05;;;;;;;35.58;22.80;;;;;;;0.18;72.03;102028.34;1860316;77;20942;-78
2021/11/25 06:48:33;;;;;;;35.05;20.90;;;;;;;0.23;71.86;102027.07;1860289;77;20911;-79
2021/11/25 06:51:00;;;;;;;25.00;17.80;;;;;;;0.28;71.70;102025.38;1860611;77;21786;-77
2021/11/25 06:53:28;;;;;;;22.05;16.93;;;;;;;0.31;71.52;102028.84;1860227;76;20958;-78
2021/11/25 06:55:56;;;;;;;25.57;17.07;;;;;;;0.38;71.48;102032.31;1860711;77;20950;-78
2021/11/25 06:58:23;;;;;;;32.00;17.73;;;;;;;0.45;71.35;102025.03;1860538;76;20922;-78
2021/11/25 07:00:50;;;;;;;27.80;17.25;;;;;;;0.53;71.26;102025.05;1860417;77;21499;-78
2021/11/25 07:03:17;;;;;;;35.35;20.32;;;;;;;0.62;70.99;102028.95;1860709;76;21108;-79
2021/11/25 07:05:44;;;;;;;31.95;18.52;;;;;;;0.70;70.78;102023.40;1860626;77;20911;-80
2021/11/25 07:08:11;;;;;;;28.23;17.67;;;;;;;0.80;70.51;102029.44;1860714;77;21514;-80
2021/11/25 07:10:38;;;;;;;33.53;19.92;;;;;;;0.88;70.33;102030.78;1860565;77;20931;-80
2021/11/25 07:13:05;;;;;;;30.85;17.95;;;;;;;0.95;69.94;102028.20;1860392;77;21069;-79
2021/11/25 07:15:32;;;;;;;24.95;15.93;;;;;;;1.04;69.51;102027.36;1860525;76;21762;-79
2021/11/25 07:18:01;;;;;;;29.85;17.48;;;;;;;1.09;69.16;102030.84;1859928;77;20876;-79
2021/11/25 07:20:28;;;;;;;33.55;19.65;;;;;;;1.12;68.99;102032.56;1859897;76;20907;-79
2021/11/25 07:22:55;;;;;;;43.20;22.25;;;;;;;1.26;68.86;102035.16;1860008;76;20946;-80
2021/11/25 07:25:23;;;;;;;28.77;20.25;;;;;;;1.37;68.65;102033.45;1860435;77;20875;-79
2021/11/25 07:29:55;;;;;;;23.73;18.27;;;;;;;1.68;67.97;102038.64;1816529;79;22499;-80
2021/11/25 07:32:24;;;;;;;30.62;17.65;;;;;;;1.76;67.52;102035.19;1790427;80;20971;-79
2021/11/25 07:34:52;;;;;;;33.23;20.08;;;;;;;1.85;67.06;102043.37;1791184;80;21381;-78
2021/11/25 07:37:19;;;;;;;28.42;19.10;;;;;;;1.94;66.76;102036.04;1789599;80;21496;-79
2021/11/25 07:39:46;;;;;;;25.88;17.50;;;;;;;2.01;66.60;102037.30;1789576;80;21449;-79
2021/11/25 07:42:13;;;;;;;39.70;21.75;;;;;;;2.10;66.45;102034.28;1789583;80;20892;-78
2021/11/25 07:44:40;;;;;;;32.48;20.27;;;;;;;2.20;66.04;102035.55;1789517;80;20924;-79
2021/11/25 07:47:07;;;;;;;34.60;20.77;;;;;;;2.28;65.95;102028.61;1789586;79;21146;-78
2021/11/25 07:49:34;;;;;;;28.00;18.48;;;;;;;2.40;65.68;102037.20;1789557;80;21303;-77
2021/11/25 07:52:08;;;;;;;27.77;18.98;;;;;;;2.48;65.20;102035.45;1789614;80;20927;-80
2021/11/25 07:54:35;;;;;;;29.10;17.75;;;;;;;2.54;65.04;102047.09;1789101;79;20923;-78
2021/11/25 07:57:02;;;;;;;24.10;17.48;;;;;;;2.60;64.92;102036.72;1789617;79;20948;-79
2021/11/25 07:59:29;;;;;;;28.92;17.98;;;;;;;2.68;64.60;102036.23;1789770;80;21142;-79
2021/11/25 08:01:56;;;;;;;28.77;19.73;;;;;;;2.75;64.22;102039.66;1789468;79;21322;-79
2021/11/25 08:04:24;;;;;;;25.32;16.45;;;;;;;2.77;64.12;102034.48;1789532;79;20892;-77
2021/11/25 08:06:51;;;;;;;18.62;13.68;;;;;;;2.82;64.11;102033.57;1789717;79;20935;-80
2021/11/25 08:09:17;;;;;;;17.55;13.88;;;;;;;2.88;63.86;102032.25;1789651;80;20837;-79
2021/11/25 08:11:45;;;;;;;18.57;12.70;;;;;;;2.92;63.20;102028.37;1790219;80;21082;-79
2021/11/25 08:14:13;;;;;;;21.97;13.95;;;;;;;2.90;62.93;102024.48;1789560;80;20891;-80
2021/11/25 08:16:41;;;;;;;18.02;13.25;;;;;;;2.90;62.80;102029.22;1789558;80;20897;-80
2021/11/25 08:19:08;;;;;;;20.55;14.43;;;;;;;2.92;62.72;102027.92;1789507;80;20955;-78
2021/11/25 08:21:35;;;;;;;17.65;12.80;;;;;;;2.96;62.70;102027.45;1789510;80;21377;-79
2021/11/25 08:24:02;;;;;;;17.70;12.50;;;;;;;3.02;62.33;102022.24;1789638;80;21085;-80
2021/11/25 08:26:29;;;;;;;17.77;12.58;;;;;;;3.06;62.34;102022.22;1790469;80;20947;-80
2021/11/25 08:28:56;;;;;;;14.78;12.20;;;;;;;3.12;62.12;102025.22;1788534;79;20938;-80
2021/11/25 08:31:23;;;;;;;19.52;13.30;;;;;;;3.17;61.86;102020.85;1784842;80;20928;-80
2021/11/25 08:33:50;;;;;;;20.00;13.80;;;;;;;3.21;61.75;102018.67;1784834;79;20932;-81
2021/11/25 08:36:17;;;;;;;21.30;13.65;;;;;;;3.29;61.55;102018.60;1784667;80;21763;-82
2021/11/25 08:38:44;;;;;;;20.00;14.07;;;;;;;3.36;61.39;102013.82;1784564;79;21370;-81
2021/11/25 08:41:12;;;;;;;17.98;12.75;;;;;;;3.42;61.08;102019.38;1783931;80;20892;-79
2021/11/25 08:43:39;;;;;;;19.85;13.80;;;;;;;3.45;60.93;102012.45;1783903;80;20985;-80
2021/11/25 08:46:07;;;;;;;21.77;14.50;;;;;;;3.47;60.94;102006.81;1784123;79;20892;-80
2021/11/25 08:48:34;;;;;;;27.05;17.90;;;;;;;3.50;60.82;102004.19;1783898;80;21142;-78
2021/11/25 08:51:03;;;;;;;20.35;15.13;;;;;;;3.54;60.76;102003.73;1783883;79;20951;-79
2021/11/25 08:53:31;;;;;;;17.50;11.85;;;;;;;3.58;60.70;101999.36;1783865;80;21468;-79
2021/11/25 08:55:58;;;;;;;18.40;12.33;;;;;;;3.64;60.68;102004.50;1783951;79;21007;-79
2021/11/25 08:58:25;;;;;;;19.05;11.80;;;;;;;3.68;60.37;102003.61;1783874;79;20919;-79
2021/11/25 09:00:52;;;;;;;18.77;13.15;;;;;;;3.71;60.29;101999.67;1784048;80;21086;-80
2021/11/25 09:03:20;;;;;;;20.82;12.95;;;;;;;3.76;60.37;101994.44;1783923;79;21429;-79
2021/11/25 09:05:48;;;;;;;18.32;12.43;;;;;;;3.80;60.38;101991.83;1783910;80;20956;-81
2021/11/25 09:08:15;;;;;;;20.92;11.55;;;;;;;3.85;60.10;101984.86;1783933;80;20920;-80
2021/11/25 09:10:43;;;;;;;17.10;11.63;;;;;;;3.88;60.18;101986.11;1784171;79;20924;-81
2021/11/25 09:13:11;;;;;;;21.42;13.60;;;;;;;3.95;60.10;101983.86;1784172;80;21087;-80
2021/11/25 09:15:40;;;;;;;19.20;12.78;;;;;;;4.03;60.12;101984.25;1783944;80;20908;-78
2021/11/25 09:18:07;;;;;;;16.05;11.43;;;;;;;4.11;59.88;101987.18;1784254;79;21359;-82
2021/11/25 09:20:34;;;;;;;15.32;11.20;;;;;;;4.20;59.81;101986.19;1783953;80;21064;-80
2021/11/25 09:23:04;;;;;;;15.58;11.68;;;;;;;4.27;59.71;101977.89;1785326;79;20920;-81
2021/11/25 09:25:31;;;;;;;17.48;12.88;;;;;;;4.33;59.58;101985.16;1784692;80;21152;-75
2021/11/25 09:27:59;;;;;;;17.50;12.15;;;;;;;4.38;59.66;101976.05;1784362;80;20948;-74
2021/11/25 09:30:28;;;;;;;17.73;11.60;;;;;;;4.47;59.72;101977.23;1775537;80;20912;-76
2021/11/25 09:32:55;;;;;;;16.45;12.15;;;;;;;4.54;59.45;101971.06;1775376;80;20881;-75
2021/11/25 09:35:22;;;;;;;15.40;11.70;;;;;;;4.64;59.13;101972.23;1775400;80;20968;-74
2021/11/25 09:37:49;;;;;;;14.68;11.12;;;;;;;4.75;58.92;101967.75;1775447;80;21124;-76
2021/11/25 09:40:23;;;;;;;16.05;11.05;;;;;;;4.85;58.44;101965.91;1775312;80;20857;-75
2021/11/25 09:42:57;;;;;;;18.23;12.25;;;;;;;4.89;57.92;101958.03;1775470;80;20873;-74
2021/11/25 09:45:24;;;;;;;15.35;11.88;;;;;;;4.92;57.86;101965.77;1775698;80;20904;-76
2021/11/25 09:47:54;;;;;;;18.87;12.18;;;;;;;4.94;57.45;101964.46;1775111;80;21386;-75
2021/11/25 09:50:23;;;;;;;16.52;10.50;;;;;;;4.94;57.51;101959.27;1775608;80;21816;-75
2021/11/25 09:52:53;;;;;;;15.03;11.75;;;;;;;4.97;57.33;101957.91;1775364;80;20924;-75
2021/11/25 09:55:20;;;;;;;14.75;11.30;;;;;;;5.01;57.17;101958.28;1775331;80;20964;-75
2021/11/25 09:57:50;;;;;;;28.32;18.65;;;;;;;5.08;56.86;101959.05;1775199;80;21498;-75
2021/11/25 10:00:18;;;;;;;17.05;12.58;;;;;;;5.12;56.47;101951.17;1775377;80;21339;-74
2021/11/25 10:02:45;;;;;;;14.00;10.82;;;;;;;5.18;56.39;101941.98;1775501;80;21928;-74
2021/11/25 10:05:12;;;;;;;15.10;10.40;;;;;;;5.25;56.29;101940.59;1774828;80;21352;-75
2021/11/25 10:07:41;;;;;;;18.30;12.30;;;;;;;5.31;55.98;101948.27;1775705;80;20991;-75
2021/11/25 10:10:29;;;;;;;15.75;12.28;;;;;;;5.35;55.85;101939.53;1775172;80;20944;-76
2021/11/25 10:13:01;;;;;;;17.80;12.82;;;;;;;5.39;55.90;101942.05;1775638;80;20928;-77
2021/11/25 10:15:35;;;;;;;16.35;11.75;;;;;;;5.45;54.98;101938.91;1775370;80;21778;-75
2021/11/25 10:18:12;;;;;;;18.65;12.28;;;;;;;5.50;54.43;101938.41;1775199;80;21291;-74
2021/11/25 10:20:44;;;;;;;18.02;11.75;;;;;;;5.51;54.26;101925.36;1775487;80;20944;-75
2021/11/25 10:23:19;;;;;;;15.05;11.10;;;;;;;5.57;54.49;101924.41;1775306;80;20948;-76
2021/11/25 10:26:09;;;;;;;15.35;9.85;;;;;;;5.66;54.79;101925.98;1775308;80;21085;-76
2021/11/25 10:28:44;;;;;;;17.67;12.03;;;;;;;5.74;54.67;101930.61;1775668;80;21059;-75
2021/11/25 10:31:31;;;;;;;14.13;11.75;;;;;;;5.78;54.86;101927.04;1775232;80;20959;-75
2021/11/25 10:34:11;;;;;;;18.07;12.07;;;;;;;5.79;54.86;101922.27;1775260;80;21540;-74
2021/11/25 10:37:04;;;;;;;17.12;12.37;;;;;;;5.81;54.78;101917.89;1775335;80;20944;-74
2021/11/25 10:40:09;;;;;;;22.67;13.22;;;;;;;5.76;54.63;101915.37;1774536;80;20978;-75
2021/11/25 10:42:18;;;;;;;17.48;12.63;;;;;;;5.71;54.89;101918.48;1771120;80;21173;-74
2021/11/25 10:44:50;;;;;;;18.57;13.80;;;;;;;5.68;55.48;101909.91;1774942;80;21502;-74
2021/11/25 10:47:21;;;;;;;18.75;12.88;;;;;;;5.63;56.18;101906.53;1775271;80;20920;-73
2021/11/25 10:49:56;;;;;;;19.60;14.87;;;;;;;5.60;56.35;101899.20;1775509;80;21378;-75
2021/11/25 10:52:31;;;;;;;18.52;13.90;;;;;;;5.55;56.81;101899.70;1775320;80;21018;-74
2021/11/25 10:55:02;;;;;;;19.67;14.28;;;;;;;5.52;56.91;101892.42;1775456;80;21203;-75
2021/11/25 10:57:46;;;;;;;22.15;13.35;;;;;;;5.45;56.97;101888.19;1775228;80;20924;-77
2021/11/25 11:00:24;;;;;;;14.77;11.80;;;;;;;5.42;56.92;101888.25;1775521;80;20924;-75
2021/11/25 11:03:12;;;;;;;21.75;14.20;;;;;;;5.31;56.44;101877.59;1775284;80;20968;-76
2021/11/25 11:05:56;;;;;;;22.48;14.23;;;;;;;5.25;56.75;101879.02;1775220;80;21022;-77
2021/11/25 11:08:29;;;;;;;19.07;12.13;;;;;;;5.18;57.01;101872.22;1775735;80;21780;-76
2021/11/25 11:11:06;;;;;;;16.82;12.20;;;;;;;5.11;57.09;101869.28;1775349;80;20858;-76
2021/11/25 11:13:46;;;;;;;19.80;12.10;;;;;;;5.07;57.25;101870.22;1775544;80;21414;-77
2021/11/25 11:18:57;;;;;;;22.65;13.15;;;;;;;4.95;56.77;101864.79;1775429;80;20881;-74
2021/11/25 11:21:40;;;;;;;18.85;13.03;;;;;;;4.89;56.94;101865.77;1775185;80;21149;-78
2021/11/25 11:24:23;;;;;;;23.12;14.93;;;;;;;4.82;57.08;101858.07;1775274;80;20920;-75
2021/11/25 11:27:02;;;;;;;23.42;14.83;;;;;;;4.76;57.31;101866.84;1774659;80;20944;-74
2021/11/25 11:29:30;;;;;;;22.77;13.40;;;;;;;4.73;57.37;101866.42;1776742;80;21508;-75